Time;durP1;ratioP1;P1;durP2;ratioP2;P2;SDS_P1;SDS_P2;PMS_P1;PMS_P2;Temp;Humidity;BMP_temperature;BMP_pressure;BME280_temperature;BME280_humidity;BME280_pressure;Samples;Min_cycle;Max_cycle;Signal;HPM_P1;HPM_P2
2024/01/14 00:01:07;;;;;;;10.80;7.90;;;;;;;-144.99;100.00;76364.31;109597;1251;73573;-77
2024/01/14 00:03:36;;;;;;;9.40;8.20;;;;;;;-144.99;100.00;76363.13;109394;1250;71359;-77
2024/01/14 00:06:04;;;;;;;11.00;8.40;;;;;;;-144.99;100.00;76359.14;109568;1251;59322;-76
2024/01/14 00:08:32;;;;;;;10.60;8.20;;;;;;;-144.99;100.00;76355.16;109545;1251;58925;-76
2024/01/14 00:11:00;;;;;;;10.30;8.30;;;;;;;-144.99;100.00;76355.17;109577;1255;74627;-76
2024/01/14 00:13:27;;;;;;;10.20;8.00;;;;;;;-144.99;100.00;76349.99;109563;1251;73441;-76
2024/01/14 00:15:55;;;;;;;8.80;7.50;;;;;;;-144.99;100.00;76350.39;109563;1251;72148;-76
2024/01/14 00:18:22;;;;;;;9.60;7.60;;;;;;;-144.99;100.00;76351.98;109526;1251;60955;-76
2024/01/14 00:20:50;;;;;;;9.90;7.80;;;;;;;-144.99;100.00;76353.17;109566;1250;58921;-76
2024/01/14 00:23:18;;;;;;;8.10;7.30;;;;;;;-144.99;100.00;76345.22;109552;1251;73401;-76
2024/01/14 00:25:46;;;;;;;11.10;8.40;;;;;;;-144.99;100.00;76341.24;109564;1251;73512;-76
2024/01/14 00:28:13;;;;;;;9.50;8.40;;;;;;;-144.99;100.00;76334.48;109492;1251;70392;-76
2024/01/14 00:30:41;;;;;;;10.70;8.70;;;;;;;-144.99;100.00;76335.27;109569;1251;60047;-76
2024/01/14 00:33:08;;;;;;;9.60;8.10;;;;;;;-144.99;100.00;76336.47;109559;1251;58963;-76
2024/01/14 00:35:36;;;;;;;11.90;8.80;;;;;;;-144.99;100.00;76333.69;109570;1251;74696;-77
2024/01/14 00:38:06;;;;;;;9.50;8.40;;;;;;;-144.99;100.00;76335.27;109583;1250;73108;-77
2024/01/14 00:40:34;;;;;;;10.70;8.30;;;;;;;-144.99;100.00;76331.70;109562;1251;72725;-77
2024/01/14 00:43:02;;;;;;;10.80;7.70;;;;;;;-144.99;100.00;76330.11;109574;1251;61219;-77
2024/01/14 00:45:30;;;;;;;8.80;7.60;;;;;;;-144.99;100.00;76328.52;109545;1250;58932;-77
2024/01/14 00:47:58;;;;;;;9.90;8.50;;;;;;;-144.99;100.00;76326.52;109574;1251;74698;-76
2024/01/14 00:50:25;;;;;;;10.10;7.90;;;;;;;-144.99;100.00;76318.57;109582;1251;73641;-77
2024/01/14 00:52:53;;;;;;;8.60;7.50;;;;;;;-144.99;100.00;76322.55;109540;1251;72631;-77
2024/01/14 00:55:21;;;;;;;8.30;7.20;;;;;;;-144.99;100.00;76324.14;109543;1251;61225;-77
2024/01/14 00:57:48;;;;;;;10.20;8.30;;;;;;;-144.99;100.00;76316.98;109567;1251;59894;-77
2024/01/14 01:00:17;;;;;;;10.00;7.80;;;;;;;-144.99;100.00;76316.98;109546;1252;74840;-77
2024/01/14 01:02:45;;;;;;;9.20;7.90;;;;;;;-144.99;100.00;76317.77;109557;1250;72057;-77
2024/01/14 01:05:13;;;;;;;9.00;7.90;;;;;;;-144.99;100.00;76316.98;109524;1251;71423;-76
2024/01/14 01:07:40;;;;;;;8.80;7.40;;;;;;;-144.99;100.00;76310.61;109522;1250;59598;-77
2024/01/14 01:10:09;;;;;;;9.20;8.00;;;;;;;-144.99;100.00;76306.64;109540;1250;58963;-76
2024/01/14 01:12:36;;;;;;;10.20;7.90;;;;;;;-144.99;100.00;76301.86;109583;1251;74883;-77
2024/01/14 01:15:07;;;;;;;9.60;7.70;;;;;;;-144.99;100.00;76299.08;109562;1251;74420;-77
2024/01/14 01:17:35;;;;;;;8.90;7.70;;;;;;;-144.99;100.00;76291.13;109526;1251;72655;-76
2024/01/14 01:20:03;;;;;;;9.50;7.70;;;;;;;-144.99;100.00;76287.54;109567;1251;58976;-77
2024/01/14 01:22:31;;;;;;;9.20;7.50;;;;;;;-144.99;100.00;76290.33;109552;1251;60285;-77
2024/01/14 01:24:58;;;;;;;9.50;7.70;;;;;;;-144.99;100.00;76289.14;109565;1251;74747;-77
2024/01/14 01:27:27;;;;;;;9.60;7.80;;;;;;;-144.99;100.00;76289.13;109620;1250;72554;-76
2024/01/14 01:29:55;;;;;;;8.90;7.50;;;;;;;-144.99;100.00;76282.37;109580;1251;71476;-76
2024/01/14 01:32:22;;;;;;;8.60;7.40;;;;;;;-144.99;100.00;76281.97;109496;1251;59667;-77
2024/01/14 01:34:50;;;;;;;10.00;7.00;;;;;;;-144.99;100.00;76277.20;109580;1251;58945;-76
2024/01/14 01:37:18;;;;;;;9.50;8.50;;;;;;;-144.99;100.00;76273.22;109601;1250;73348;-76
2024/01/14 01:39:46;;;;;;;9.30;7.60;;;;;;;-144.99;100.00;76273.63;109554;1251;73393;-77
2024/01/14 01:42:13;;;;;;;11.00;7.80;;;;;;;-144.99;100.00;76271.63;109524;1251;71045;-78
2024/01/14 01:44:41;;;;;;;10.10;7.90;;;;;;;-144.99;100.00;76266.06;109522;1251;60856;-77
2024/01/14 01:47:09;;;;;;;9.20;7.80;;;;;;;-144.99;100.00;76268.05;109575;1251;60078;-77
2024/01/14 01:49:37;;;;;;;11.00;8.10;;;;;;;-144.99;100.00;76266.86;109562;1251;74832;-76
2024/01/14 01:52:06;;;;;;;9.00;8.00;;;;;;;-144.99;100.00;76268.45;109573;1251;73461;-77
2024/01/14 01:54:33;;;;;;;9.10;8.00;;;;;;;-144.99;100.00;76270.84;109579;1250;72474;-76
2024/01/14 01:57:01;;;;;;;10.30;8.70;;;;;;;-144.99;100.00;76263.67;109537;1251;59279;-76
2024/01/14 01:59:31;;;;;;;10.10;8.80;;;;;;;-144.99;100.00;76260.10;109566;1250;59457;-76
2024/01/14 02:02:00;;;;;;;11.90;9.00;;;;;;;-144.99;100.00;76263.67;109487;1254;74529;-76
2024/01/14 02:04:30;;;;;;;10.90;8.50;;;;;;;-144.99;100.00;76262.88;109564;1251;73367;-77
2024/01/14 02:06:58;;;;;;;10.00;8.20;;;;;;;-144.99;100.00;76260.49;109472;1251;72657;-76
2024/01/14 02:09:26;;;;;;;12.50;9.30;;;;;;;-144.99;100.00;76257.31;109499;1251;58872;-77
2024/01/14 02:11:53;;;;;;;11.90;9.50;;;;;;;-144.99;100.00;76257.30;109529;1251;58948;-76
2024/01/14 02:14:21;;;;;;;12.60;9.80;;;;;;;-144.99;100.00;76256.52;109535;1251;74918;-77
2024/01/14 02:16:48;;;;;;;12.90;9.70;;;;;;;-144.99;100.00;76262.48;109519;1251;72818;-77
2024/01/14 02:19:16;;;;;;;11.90;9.40;;;;;;;-144.99;100.00;76263.28;109521;1251;72399;-76
2024/01/14 02:21:49;;;;;;;12.60;10.10;;;;;;;-144.99;100.00;76262.09;109533;1251;60818;-76
2024/01/14 02:24:22;;;;;;;13.30;10.50;;;;;;;-144.99;100.00;76262.08;109547;1251;59309;-77
2024/01/14 02:26:50;;;;;;;12.50;10.00;;;;;;;-144.99;100.00;76264.46;109518;1251;73368;-76
2024/01/14 02:29:18;;;;;;;14.00;10.90;;;;;;;-144.99;100.00;76265.66;109517;1251;73485;-76
2024/01/14 02:31:46;;;;;;;13.40;10.00;;;;;;;-144.99;100.00;76259.30;109537;1251;70200;-76
2024/01/14 02:34:14;;;;;;;13.30;11.00;;;;;;;-144.99;100.00;76253.73;109480;1251;59957;-76
2024/01/14 02:36:42;;;;;;;14.10;9.40;;;;;;;-144.99;100.00;76255.71;109536;1251;61336;-76
2024/01/14 02:39:09;;;;;;;14.00;10.80;;;;;;;-144.99;100.00;76248.16;109534;1251;74685;-77
2024/01/14 02:41:37;;;;;;;14.20;10.70;;;;;;;-144.99;100.00;76245.77;109574;1251;72168;-77
2024/01/14 02:44:05;;;;;;;13.30;10.40;;;;;;;-144.99;100.00;76244.58;109501;1251;72561;-77
2024/01/14 02:46:32;;;;;;;12.90;10.10;;;;;;;-144.99;100.00;76240.99;109528;1253;60136;-76
2024/01/14 02:49:00;;;;;;;14.40;10.00;;;;;;;-144.99;100.00;76239.02;109517;1254;58854;-76
2024/01/14 02:51:28;;;;;;;14.50;10.60;;;;;;;-144.99;100.00;76235.43;109543;1251;73376;-76
2024/01/14 02:53:55;;;;;;;11.90;9.90;;;;;;;-144.99;100.00;76235.04;109506;1251;71823;-77
2024/01/14 02:56:23;;;;;;;13.00;9.60;;;;;;;-144.99;100.00;76224.30;109520;1254;72675;-76
2024/01/14 02:58:50;;;;;;;12.30;9.70;;;;;;;-144.99;100.00;76217.53;109531;1251;59061;-76
2024/01/14 03:01:18;;;;;;;12.60;9.60;;;;;;;-144.99;100.00;76213.15;109541;1251;58916;-76
2024/01/14 03:03:47;;;;;;;11.30;9.20;;;;;;;-144.99;100.00;76210.77;109571;1251;72972;-76
2024/01/14 03:06:15;;;;;;;12.50;9.50;;;;;;;-144.99;100.00;76204.80;109570;1251;72236;-76
2024/01/14 03:08:43;;;;;;;12.50;9.60;;;;;;;-144.99;100.00;76197.24;109535;1251;72605;-76
2024/01/14 03:11:10;;;;;;;11.70;9.30;;;;;;;-144.99;100.00;76186.90;109565;1251;59560;-76
2024/01/14 03:13:38;;;;;;;12.50;8.60;;;;;;;-144.99;100.00;76182.13;109625;1255;60011;-77
2024/01/14 03:16:06;;;;;;;10.10;8.30;;;;;;;-144.99;100.00;76176.55;109578;1250;74611;-76
2024/01/14 03:18:33;;;;;;;9.70;7.90;;;;;;;-144.99;100.00;76170.60;109567;1251;73574;-78
2024/01/14 03:21:01;;;;;;;9.80;8.20;;;;;;;-144.99;100.00;76164.23;109665;1250;71635;-76
2024/01/14 03:23:29;;;;;;;10.60;9.10;;;;;;;-144.99;100.00;76161.05;109541;1250;60850;-76
2024/01/14 03:25:56;;;;;;;11.00;8.50;;;;;;;-144.99;100.00;76156.27;109558;1250;60009;-76
2024/01/14 03:28:24;;;;;;;10.40;8.40;;;;;;;-144.99;100.00;76154.28;109565;1251;74619;-76
2024/01/14 03:30:51;;;;;;;10.80;8.30;;;;;;;-144.99;100.00;76143.55;109571;1251;73895;-76
2024/01/14 03:33:19;;;;;;;11.00;8.40;;;;;;;-144.99;100.00;76143.55;109527;1251;72651;-76
2024/01/14 03:35:47;;;;;;;10.40;8.30;;;;;;;-144.99;100.00;76137.58;109554;1251;59563;-76
2024/01/14 03:38:15;;;;;;;8.90;7.50;;;;;;;-144.99;100.00;76135.59;109575;1250;59955;-76
2024/01/14 03:40:42;;;;;;;10.70;8.50;;;;;;;-144.99;100.00;76134.80;109572;1251;74625;-76
2024/01/14 03:43:10;;;;;;;10.10;7.70;;;;;;;-144.99;100.00;76135.59;109569;1251;71773;-76
2024/01/14 03:45:38;;;;;;;10.50;8.20;;;;;;;-144.99;100.00;76137.18;109555;1250;72601;-76
2024/01/14 03:48:05;;;;;;;10.00;8.00;;;;;;;-144.99;100.00;76130.81;109520;1250;59680;-76
2024/01/14 03:50:33;;;;;;;9.90;8.20;;;;;;;-144.99;100.00;76135.59;109568;1251;58975;-76
2024/01/14 03:53:01;;;;;;;10.10;8.20;;;;;;;-144.99;100.00;76134.00;109585;1251;74588;-76
2024/01/14 03:55:28;;;;;;;9.20;8.10;;;;;;;-144.99;100.00;76130.02;109557;1251;73413;-76
2024/01/14 03:57:58;;;;;;;10.40;8.20;;;;;;;-144.99;100.00;76129.62;109584;1251;72576;-76
2024/01/14 04:00:25;;;;;;;9.70;7.70;;;;;;;-144.99;100.00;76130.02;109528;1251;60985;-75
2024/01/14 04:02:53;;;;;;;10.40;8.70;;;;;;;-144.99;100.00;76122.46;109540;1251;60204;-76
2024/01/14 04:05:21;;;;;;;9.10;7.40;;;;;;;-144.99;100.00;76122.86;109578;1251;74605;-76
2024/01/14 04:07:51;;;;;;;9.00;7.50;;;;;;;-144.99;100.00;76118.88;109561;1251;75568;-76
2024/01/14 04:10:19;;;;;;;9.90;8.30;;;;;;;-144.99;100.00;76112.13;109546;1251;72400;-76
2024/01/14 04:12:46;;;;;;;10.70;8.80;;;;;;;-144.99;100.00;76110.92;109559;1251;59992;-76
2024/01/14 04:15:14;;;;;;;8.60;7.70;;;;;;;-144.99;100.00;76108.94;109550;1251;60217;-76
2024/01/14 04:17:42;;;;;;;9.60;7.70;;;;;;;-144.99;100.00;76103.37;109544;1251;74553;-75
2024/01/14 04:20:10;;;;;;;10.80;8.00;;;;;;;-144.99;100.00;76097.40;109559;1251;73574;-76
2024/01/14 04:22:38;;;;;;;10.00;8.60;;;;;;;-144.99;100.00;76096.20;109543;1251;72589;-76
2024/01/14 04:25:05;;;;;;;8.90;8.00;;;;;;;-144.99;100.00;76094.22;109535;1251;60897;-76
2024/01/14 04:27:34;;;;;;;9.90;8.00;;;;;;;-144.99;100.00;76092.63;109530;1251;60131;-76
2024/01/14 04:30:02;;;;;;;10.30;8.30;;;;;;;-144.99;100.00;76092.63;109531;1251;73398;-76
2024/01/14 04:32:29;;;;;;;10.50;8.60;;;;;;;-144.99;100.00;76090.23;109566;1251;75630;-76
2024/01/14 04:34:58;;;;;;;10.30;8.10;;;;;;;-144.99;100.00;76091.84;109552;1251;72464;-76
2024/01/14 04:37:25;;;;;;;9.80;8.30;;;;;;;-144.99;100.00;76089.05;109541;1251;59669;-76
2024/01/14 04:39:55;;;;;;;10.10;7.90;;;;;;;-144.99;100.00;76091.43;109561;1251;59251;-75
2024/01/14 04:42:23;;;;;;;11.00;8.10;;;;;;;-144.99;100.00;76084.27;109542;1250;76756;-76
2024/01/14 04:44:51;;;;;;;10.90;8.20;;;;;;;-144.99;100.00;76086.27;109557;1251;73595;-76
2024/01/14 04:47:19;;;;;;;11.10;8.70;;;;;;;-144.99;100.00;76087.05;109539;1251;72856;-76
2024/01/14 04:49:46;;;;;;;12.60;8.50;;;;;;;-144.99;100.00;76089.84;109533;1250;59667;-76
2024/01/14 04:52:14;;;;;;;11.20;9.00;;;;;;;-144.99;100.00;76088.25;109543;1251;58815;-76
2024/01/14 04:54:41;;;;;;;9.90;8.30;;;;;;;-144.99;100.00;76089.05;109660;1251;74750;-76
2024/01/14 04:57:09;;;;;;;9.20;8.20;;;;;;;-144.99;100.00;76086.66;109563;1251;73369;-76
2024/01/14 04:59:37;;;;;;;11.60;9.00;;;;;;;-144.99;100.00;76084.27;109543;1251;71399;-76
2024/01/14 05:02:05;;;;;;;9.50;8.10;;;;;;;-144.99;100.00;76087.05;109575;1249;59624;-76
2024/01/14 05:04:32;;;;;;;11.00;8.10;;;;;;;-144.99;100.00;76090.64;109552;1250;59030;-76
2024/01/14 05:07:00;;;;;;;10.10;8.00;;;;;;;-144.99;100.00;76097.40;109566;1251;73532;-76
2024/01/14 05:09:28;;;;;;;9.70;7.70;;;;;;;-144.99;100.00;76093.42;109572;1250;71737;-77
2024/01/14 05:11:55;;;;;;;9.90;7.90;;;;;;;-144.99;100.00;76090.64;109533;1249;73127;-76
2024/01/14 05:14:23;;;;;;;9.50;7.30;;;;;;;-144.99;100.00;76090.64;109556;1254;60862;-76
2024/01/14 05:16:51;;;;;;;8.30;7.40;;;;;;;-144.99;100.00;76096.20;109606;1250;58812;-76
2024/01/14 05:19:19;;;;;;;8.70;7.60;;;;;;;-144.99;100.00;76096.21;109662;1249;73452;-76
2024/01/14 05:21:48;;;;;;;8.70;7.70;;;;;;;-144.99;100.00;76091.44;109626;1251;73389;-76
2024/01/14 05:24:15;;;;;;;9.40;8.10;;;;;;;-144.99;100.00;76085.86;109547;1249;72623;-76
2024/01/14 05:26:43;;;;;;;8.60;7.60;;;;;;;-144.99;100.00;76079.50;109555;1251;59582;-76
2024/01/14 05:29:10;;;;;;;8.50;7.20;;;;;;;-144.99;100.00;76078.30;109674;1250;59212;-76
2024/01/14 05:31:38;;;;;;;8.50;7.60;;;;;;;-144.99;100.00;76076.71;109653;1251;74762;-76
2024/01/14 05:34:06;;;;;;;10.80;8.20;;;;;;;-144.99;100.00;76074.73;109653;1250;72633;-76
2024/01/14 05:36:34;;;;;;;9.20;7.60;;;;;;;-144.99;100.00;76068.77;109563;1251;72702;-76
2024/01/14 05:39:04;;;;;;;8.40;6.90;;;;;;;-144.99;100.00;76066.38;109565;1250;60869;-76
2024/01/14 05:41:32;;;;;;;9.60;7.20;;;;;;;-144.99;100.00;76063.98;109567;1251;59057;-76
2024/01/14 05:43:59;;;;;;;14.80;9.90;;;;;;;-144.99;100.00;76060.02;109604;1251;74906;-76
2024/01/14 05:46:27;;;;;;;10.70;9.00;;;;;;;-144.99;100.00;76062.00;109582;1251;73645;-77
2024/01/14 05:48:54;;;;;;;10.60;8.60;;;;;;;-144.99;100.00;76060.41;109585;1251;72574;-76
2024/01/14 05:51:22;;;;;;;8.90;7.70;;;;;;;-144.99;100.00;76056.03;109563;1251;59302;-76
2024/01/14 05:53:50;;;;;;;8.90;7.40;;;;;;;-144.99;100.00;76048.48;109570;1249;59925;-76
2024/01/14 05:56:26;;;;;;;9.00;7.70;;;;;;;-144.99;100.00;76054.04;109595;1250;73450;-76
2024/01/14 05:58:54;;;;;;;9.50;7.90;;;;;;;-144.99;100.00;76056.42;109631;1251;73472;-76
2024/01/14 06:01:22;;;;;;;8.60;7.40;;;;;;;-144.99;100.00;76053.64;109579;1251;73116;-76
2024/01/14 06:03:49;;;;;;;9.90;8.50;;;;;;;-144.99;100.00;76054.44;109563;1251;61237;-76
2024/01/14 06:06:17;;;;;;;11.60;8.20;;;;;;;-144.99;100.00;76055.23;109594;1251;58933;-76
2024/01/14 06:08:45;;;;;;;9.70;8.10;;;;;;;-144.99;100.00;76054.45;109579;1250;73006;-77
2024/01/14 06:11:13;;;;;;;10.40;8.20;;;;;;;-144.99;100.00;76046.48;109512;1251;175283;-76
2024/01/14 06:13:41;;;;;;;8.10;7.30;;;;;;;-144.99;100.00;76037.34;109622;1251;72631;-76
2024/01/14 06:16:10;;;;;;;8.90;7.90;;;;;;;-144.99;100.00;76027.79;109579;1251;59661;-76
2024/01/14 06:18:39;;;;;;;9.30;7.60;;;;;;;-144.99;100.00;76017.05;109562;1251;58937;-76
2024/01/14 06:21:07;;;;;;;8.80;7.40;;;;;;;-144.99;100.00;76013.48;109651;1251;74623;-76
2024/01/14 06:23:35;;;;;;;7.80;6.90;;;;;;;-144.99;100.00;76009.10;109614;1249;72559;-77
2024/01/14 06:26:02;;;;;;;8.40;6.80;;;;;;;-144.99;100.00;76000.74;109625;1250;72226;-76
2024/01/14 06:28:30;;;;;;;7.70;6.90;;;;;;;-144.99;100.00;75994.38;109551;1251;59170;-76
2024/01/14 06:30:58;;;;;;;8.80;7.40;;;;;;;-144.99;100.00;75990.80;109564;1250;59312;-78
2024/01/14 06:33:25;;;;;;;9.90;8.60;;;;;;;-144.99;100.00;75988.02;109551;1251;74694;-75
2024/01/14 06:35:53;;;;;;;9.30;7.40;;;;;;;-144.99;100.00;75984.44;109512;1251;72378;-76
2024/01/14 06:38:21;;;;;;;8.50;7.20;;;;;;;-144.99;100.00;75976.88;109497;1251;72685;-75
2024/01/14 06:40:48;;;;;;;9.20;7.60;;;;;;;-144.99;100.00;75978.47;109521;1255;60459;-75
2024/01/14 06:43:33;;;;;;;9.30;7.40;;;;;;;-144.99;100.00;75972.51;109540;1251;58994;-75
2024/01/14 06:46:01;;;;;;;10.00;7.50;;;;;;;-144.99;100.00;75973.69;109506;1251;73451;-76
2024/01/14 06:48:28;;;;;;;9.50;7.20;;;;;;;-144.99;100.00;75970.91;109595;1249;73569;-76
2024/01/14 06:50:56;;;;;;;9.00;7.30;;;;;;;-144.99;100.00;75968.52;109582;1251;72369;-76
2024/01/14 06:53:24;;;;;;;8.90;7.60;;;;;;;-144.99;100.00;75970.52;109584;1251;59231;-76
2024/01/14 06:55:52;;;;;;;11.60;9.60;;;;;;;-144.99;100.00;75968.52;109551;1250;58768;-76
2024/01/14 06:58:19;;;;;;;9.10;7.70;;;;;;;-144.99;100.00;75963.36;109553;1250;74539;-76
2024/01/14 07:00:47;;;;;;;9.10;7.30;;;;;;;-144.99;100.00;75958.98;109590;1251;73536;-76
2024/01/14 07:03:15;;;;;;;9.60;7.70;;;;;;;-144.99;100.00;75957.39;109551;1250;72350;-76
2024/01/14 07:05:43;;;;;;;8.70;7.10;;;;;;;-144.99;100.00;75957.79;109541;1251;60853;-76
2024/01/14 07:08:10;;;;;;;7.80;6.60;;;;;;;-144.99;100.00;75956.98;109554;1251;58803;-75
2024/01/14 07:10:38;;;;;;;9.50;7.30;;;;;;;-144.99;100.00;75960.56;109561;1250;74507;-76
2024/01/14 07:13:05;;;;;;;10.00;7.70;;;;;;;-144.99;100.00;75951.83;109574;1250;73790;-76
2024/01/14 07:15:33;;;;;;;9.10;7.80;;;;;;;-144.99;100.00;75950.63;109598;1250;72938;-76
2024/01/14 07:18:03;;;;;;;9.20;7.40;;;;;;;-144.99;100.00;75944.66;109549;1251;62825;-75
2024/01/14 07:20:31;;;;;;;9.10;7.50;;;;;;;-144.99;100.00;75940.28;109559;1251;60208;-76
2024/01/14 07:22:58;;;;;;;9.80;8.00;;;;;;;-144.99;100.00;75939.48;109604;1249;74810;-76
2024/01/14 07:25:46;;;;;;;10.90;8.30;;;;;;;-144.99;100.00;75931.93;109601;1251;72411;-76
2024/01/14 07:28:14;;;;;;;10.80;7.80;;;;;;;-144.99;100.00;75924.77;109554;1250;71808;-77
2024/01/14 07:30:41;;;;;;;9.80;7.40;;;;;;;-144.99;100.00;75929.54;109518;1249;59893;-76
2024/01/14 07:33:10;;;;;;;10.60;8.30;;;;;;;-144.99;100.00;75928.75;109567;1250;58798;-76
2024/01/14 07:35:39;;;;;;;8.60;7.70;;;;;;;-144.99;100.00;75929.94;109677;1251;76764;-76
2024/01/14 07:38:06;;;;;;;9.10;7.70;;;;;;;-144.99;100.00;75921.19;109544;1251;74788;-76
2024/01/14 07:40:34;;;;;;;10.80;8.00;;;;;;;-144.99;100.00;75919.20;109513;1251;72622;-76
2024/01/14 07:43:02;;;;;;;8.60;7.60;;;;;;;-144.99;100.00;75914.43;109532;1251;59315;-76
2024/01/14 07:45:29;;;;;;;8.90;7.20;;;;;;;-144.99;100.00;75912.05;109517;1251;58953;-76
2024/01/14 07:47:57;;;;;;;9.30;7.70;;;;;;;-144.99;100.00;75905.28;109535;1251;73010;-76
2024/01/14 07:50:24;;;;;;;12.90;9.70;;;;;;;-144.99;100.00;75898.52;109586;1250;73431;-76
2024/01/14 07:52:52;;;;;;;9.20;7.90;;;;;;;-144.99;100.00;75891.77;109577;1251;72950;-76
2024/01/14 07:55:19;;;;;;;9.30;8.10;;;;;;;-144.99;100.00;75885.39;109503;1251;59094;-77
2024/01/14 07:57:47;;;;;;;8.90;7.30;;;;;;;-144.99;100.00;75879.02;109553;1251;58950;-77
2024/01/14 08:00:16;;;;;;;9.00;7.70;;;;;;;-144.99;100.00;75879.03;109527;1251;74778;-77
2024/01/14 08:02:44;;;;;;;8.80;7.00;;;;;;;-144.99;100.00;75877.84;109511;1251;76258;-77
2024/01/14 08:05:12;;;;;;;12.50;9.90;;;;;;;-144.99;100.00;75877.84;109526;1251;72306;-77
2024/01/14 08:07:41;;;;;;;18.60;12.10;;;;;;;-144.99;100.00;75875.45;109545;1251;58880;-77
2024/01/14 08:10:09;;;;;;;24.40;14.30;;;;;;;-144.99;100.00;75871.07;109525;1251;58830;-77
2024/01/14 08:12:37;;;;;;;31.60;17.90;;;;;;;-144.99;100.00;75869.48;109534;1250;74466;-77
2024/01/14 08:15:08;;;;;;;17.20;14.40;;;;;;;-144.99;100.00;75869.09;109682;1251;72590;-78
2024/01/14 08:17:37;;;;;;;11.10;9.70;;;;;;;-144.99;100.00;75864.31;109704;1251;71037;-78
2024/01/14 08:20:05;;;;;;;11.00;9.60;;;;;;;-144.99;100.00;75860.33;109670;1251;59027;-77
2024/01/14 08:22:33;;;;;;;12.40;10.20;;;;;;;-144.99;100.00;75857.55;109519;1251;61467;-77
2024/01/14 08:25:01;;;;;;;11.20;8.70;;;;;;;-144.99;100.00;75860.73;109559;1251;74810;-77
2024/01/14 08:27:30;;;;;;;11.70;9.00;;;;;;;-144.99;100.00;75855.56;109484;1251;72783;-77
2024/01/14 08:29:58;;;;;;;9.40;8.40;;;;;;;-144.99;100.00;75851.59;109632;1251;71271;-77
2024/01/14 08:32:25;;;;;;;10.10;8.20;;;;;;;-144.99;100.00;75846.41;109526;1251;59274;-77
2024/01/14 08:34:53;;;;;;;8.60;7.70;;;;;;;-144.99;100.00;75838.06;109642;1250;60217;-77
2024/01/14 08:37:21;;;;;;;8.70;7.30;;;;;;;-144.99;100.00;75844.42;109624;1250;74564;-77
2024/01/14 08:39:50;;;;;;;8.20;7.10;;;;;;;-144.99;100.00;75841.64;109559;1251;73591;-78
2024/01/14 08:42:18;;;;;;;10.00;8.20;;;;;;;-144.99;100.00;75840.45;109545;1251;72825;-77
2024/01/14 08:44:45;;;;;;;9.80;8.10;;;;;;;-144.99;100.00;75841.24;109633;1250;60891;-77
2024/01/14 08:47:13;;;;;;;8.80;7.70;;;;;;;-144.99;100.00;75834.88;109560;1251;58905;-77
2024/01/14 08:49:41;;;;;;;9.80;7.60;;;;;;;-144.99;100.00;75833.29;109467;1251;74563;-78
2024/01/14 08:52:09;;;;;;;11.70;9.20;;;;;;;-144.99;100.00;75833.29;109583;1250;73614;-77
2024/01/14 08:54:37;;;;;;;14.30;10.70;;;;;;;-144.99;100.00;75829.71;109610;1250;71078;-77
2024/01/14 08:57:07;;;;;;;12.70;9.10;;;;;;;-144.99;100.00;75832.89;109518;1251;59898;-77
2024/01/14 08:59:34;;;;;;;8.40;7.30;;;;;;;-144.99;100.00;75829.31;109508;1251;60053;-76
2024/01/14 09:02:03;;;;;;;10.00;8.30;;;;;;;-144.99;100.00;75827.72;109645;1251;75010;-77
2024/01/14 09:04:30;;;;;;;10.20;7.80;;;;;;;-144.99;100.00;75826.52;109521;1251;73324;-77
2024/01/14 09:06:58;;;;;;;8.20;7.10;;;;;;;-144.99;100.00;75818.17;109512;1251;73443;-77
2024/01/14 09:09:26;;;;;;;11.20;8.70;;;;;;;-144.99;100.00;75816.98;109523;1251;61632;-77
2024/01/14 09:11:53;;;;;;;18.00;10.60;;;;;;;-144.99;100.00;75816.98;109627;1250;59481;-77
2024/01/14 09:14:21;;;;;;;10.80;8.60;;;;;;;-144.99;100.00;75805.05;109605;1250;74662;-77
2024/01/14 09:16:49;;;;;;;8.20;7.10;;;;;;;-144.99;100.00;75803.85;109525;1251;72423;-77
2024/01/14 09:19:16;;;;;;;9.70;7.80;;;;;;;-144.99;100.00;75793.91;109512;1251;72382;-78
2024/01/14 09:21:44;;;;;;;11.80;9.40;;;;;;;-144.99;100.00;75786.75;109466;1251;60888;-77
2024/01/14 09:24:12;;;;;;;12.90;9.50;;;;;;;-144.99;100.00;75779.99;109507;1251;59715;-77
2024/01/14 09:26:39;;;;;;;10.90;8.80;;;;;;;-144.99;100.00;75770.84;109541;1251;74532;-77
2024/01/14 09:29:07;;;;;;;12.60;9.70;;;;;;;-144.99;100.00;75769.26;109515;1250;73489;-77
2024/01/14 09:31:34;;;;;;;9.20;8.00;;;;;;;-144.99;100.00;75763.69;109506;1251;72403;-77
2024/01/14 09:34:02;;;;;;;10.00;7.60;;;;;;;-144.99;100.00;75761.30;109533;1251;60820;-77
2024/01/14 09:36:33;;;;;;;11.10;8.70;;;;;;;-144.99;100.00;75755.73;109535;1250;59713;-77
2024/01/14 09:39:01;;;;;;;9.60;7.90;;;;;;;-144.99;100.00;75758.52;109536;1250;73481;-76
2024/01/14 09:41:34;;;;;;;8.00;6.90;;;;;;;-144.99;100.00;75756.52;109548;1251;73030;-77
2024/01/14 09:44:02;;;;;;;8.50;6.20;;;;;;;-144.99;100.00;75752.94;109626;1251;74640;-77
2024/01/14 09:46:30;;;;;;;10.30;7.70;;;;;;;-144.99;100.00;75745.39;109483;1251;59037;-77
2024/01/14 09:48:58;;;;;;;9.50;7.70;;;;;;;-144.99;100.00;75739.02;109462;1251;60814;-77
2024/01/14 09:51:32;;;;;;;7.50;6.50;;;;;;;-144.99;100.00;75745.39;109554;1251;76204;-77
2024/01/14 09:54:00;;;;;;;7.20;5.90;;;;;;;-144.99;100.00;75742.20;109655;1250;72097;-77
2024/01/14 09:56:33;;;;;;;10.10;9.00;;;;;;;-144.99;100.00;75734.65;109485;1251;72624;-77
2024/01/14 09:59:02;;;;;;;11.70;7.90;;;;;;;-144.99;100.00;75720.33;109514;1251;58987;-77
2024/01/14 10:01:32;;;;;;;8.70;7.40;;;;;;;-144.99;100.00;75715.16;109516;1251;58826;-77
2024/01/14 10:04:01;;;;;;;8.40;7.00;;;;;;;-144.99;100.00;75718.74;109631;1250;73279;-77
2024/01/14 10:06:29;;;;;;;10.50;8.40;;;;;;;-144.99;100.00;75713.96;109568;1251;72324;-78
2024/01/14 10:08:57;;;;;;;13.10;8.90;;;;;;;-144.99;100.00;75708.40;109497;1251;72353;-78
2024/01/14 10:11:25;;;;;;;11.00;8.30;;;;;;;-144.99;100.00;75713.56;109465;1251;61361;-77
2024/01/14 10:13:53;;;;;;;8.50;7.30;;;;;;;-144.99;100.00;75713.97;109549;1250;59693;-76
2024/01/14 10:16:22;;;;;;;8.60;6.90;;;;;;;-144.99;100.00;75716.35;109672;1250;75449;-76
2024/01/14 10:19:10;;;;;;;8.50;7.50;;;;;;;-144.99;100.00;75711.59;109569;1250;73552;-77
2024/01/14 10:21:38;;;;;;;9.40;7.80;;;;;;;-144.99;100.00;75714.36;109510;1250;72571;-77
2024/01/14 10:24:06;;;;;;;8.40;6.80;;;;;;;-144.99;100.00;75708.00;109603;1251;58958;-77
2024/01/14 10:26:34;;;;;;;9.80;7.50;;;;;;;-144.99;100.00;75700.85;109551;1251;60034;-77
2024/01/14 10:29:05;;;;;;;11.90;7.60;;;;;;;-144.99;100.00;75690.10;109572;1250;74620;-77
2024/01/14 10:31:32;;;;;;;8.10;6.40;;;;;;;-144.99;100.00;75676.58;109512;1251;73385;-77
2024/01/14 10:34:02;;;;;;;6.50;5.80;;;;;;;-144.99;100.00;75673.40;109464;1252;72637;-77
2024/01/14 10:36:34;;;;;;;12.50;9.40;;;;;;;-144.99;100.00;75678.17;109516;1251;62618;-77
2024/01/14 10:39:03;;;;;;;11.60;8.60;;;;;;;-144.99;100.00;75681.35;109592;1250;58801;-76
2024/01/14 10:41:32;;;;;;;21.40;12.20;;;;;;;-144.99;100.00;75680.55;109525;1251;74227;-77
2024/01/14 10:43:59;;;;;;;26.20;13.10;;;;;;;-144.99;100.00;75673.40;109597;1250;72097;-78
2024/01/14 10:46:30;;;;;;;10.80;8.10;;;;;;;-144.99;100.00;75673.00;109487;1251;71057;-78
2024/01/14 10:49:08;;;;;;;13.30;8.60;;;;;;;-144.99;100.00;75667.04;109507;1251;60035;-77
2024/01/14 10:51:42;;;;;;;10.80;7.80;;;;;;;-144.99;100.00;75665.45;109529;1251;59873;-78
2024/01/14 10:54:52;;;;;;;8.40;6.60;;;;;;;-144.99;100.00;75661.07;109433;1251;73572;-77
2024/01/14 10:57:25;;;;;;;8.20;6.60;;;;;;;-144.99;100.00;75662.26;108877;1259;73021;-78
2024/01/14 10:59:56;;;;;;;11.40;7.90;;;;;;;-144.99;100.00;75664.25;108821;1259;71477;-78
2024/01/14 11:02:24;;;;;;;9.60;6.70;;;;;;;-144.99;100.00;75664.64;109150;1251;61616;-77